Terminal Aerodrome Forecast
Issued by NWS

Home | Current Version | Previous Version | Text Only | Print | Product List | Glossary On
Versions: 1 2 3 4 5 6 7 8 9 10 11 12 13 14 15 16 17 18 19 20 21 22 23
000
FTUS41 KGYX 301720
TAFLEB
TAF
KLEB 301720Z 3018/3118 20012KT P6SM SCT050
     FM310300 20013KT 6SM -SHRA BKN070 OVC100 PROB30 3103/3106 P6SM
      -TSRA BKN050CB
     FM311000 35009KT 4SM -RA OVC035=

USA.gov is the U.S. government's official web portal to all federal, state and local government web resources and services.